Time;durP1;ratioP1;P1;durP2;ratioP2;P2;SDS_P1;SDS_P2;PMS_P1;PMS_P2;Temp;Humidity;BMP_temperature;BMP_pressure;BME280_temperature;BME280_humidity;BME280_pressure;Samples;Min_cycle;Max_cycle;Signal;HPM_P1;HPM_P2
2022/08/12 00:44:44;;;;;;;0.30;0.30;;;;;;;26.70;40.86;95116.81;5033256;28;20204;-67
2022/08/12 00:47:14;;;;;;;0.40;0.40;;;;;;;26.74;40.96;95117.66;5021607;28;20201;-68
2022/08/12 00:49:54;;;;;;;0.40;0.40;;;;;;;26.78;40.22;95102.41;5017521;28;20579;-66
2022/08/12 00:52:22;;;;;;;1.60;1.03;;;;;;;26.67;40.82;95123.66;5032221;28;20260;-67
2022/08/12 00:54:52;;;;;;;0.70;0.70;;;;;;;26.50;41.16;95113.28;5032143;28;20200;-68
2022/08/12 00:57:22;;;;;;;1.33;0.87;;;;;;;26.64;41.22;95124.34;5032371;28;20208;-68
2022/08/12 00:59:51;;;;;;;0.67;0.67;;;;;;;26.66;41.20;95122.06;5027469;28;20209;-67
2022/08/12 01:02:32;;;;;;;0.50;0.50;;;;;;;26.71;41.03;95119.16;5032052;28;20676;-67
2022/08/12 01:13:46;;;;;;;0.67;0.67;;;;;;;26.91;41.52;95128.81;5032015;28;20232;-65
2022/08/12 01:16:16;;;;;;;0.53;0.53;;;;;;;26.75;41.31;95130.75;5031658;28;20233;-68
2022/08/12 01:18:43;;;;;;;0.33;0.33;;;;;;;26.89;40.97;95133.75;5031920;28;20205;-68
2022/08/12 01:21:32;;;;;;;1.70;1.03;;;;;;;26.91;40.96;95139.56;5032002;28;20197;-66
2022/08/12 01:24:33;;;;;;;0.57;0.50;;;;;;;26.85;41.21;95132.91;5031666;28;20201;-66
2022/08/12 01:27:03;;;;;;;0.70;0.70;;;;;;;26.86;41.79;95136.38;5018245;28;20276;-67
2022/08/12 01:29:40;;;;;;;0.83;0.40;;;;;;;27.02;41.15;95140.53;5018852;28;20544;-67
2022/08/12 01:32:11;;;;;;;0.50;0.47;;;;;;;26.96;41.47;95133.91;5031370;28;20251;-68
2022/08/12 01:34:44;;;;;;;0.40;0.40;;;;;;;26.94;41.68;95144.22;5031410;28;20201;-67
2022/08/12 01:37:12;;;;;;;0.73;0.73;;;;;;;26.90;41.91;95132.63;5017728;28;20236;-66
2022/08/12 01:39:44;;;;;;;0.43;0.43;;;;;;;26.85;41.77;95130.22;5017570;28;20197;-66
2022/08/12 01:42:42;;;;;;;0.20;0.20;;;;;;;26.90;41.58;95129.94;5030565;28;20201;-67
2022/08/12 01:45:11;;;;;;;1.13;0.90;;;;;;;26.65;41.83;95125.13;5031989;28;20200;-67
2022/08/12 01:48:15;;;;;;;0.43;0.43;;;;;;;26.71;41.81;95124.53;5032619;28;20228;-66
2022/08/12 01:51:28;;;;;;;0.73;0.37;;;;;;;26.67;41.74;95128.25;5031419;28;20659;-66
2022/08/12 01:54:17;;;;;;;0.57;0.57;;;;;;;26.68;41.59;95127.09;5029556;28;20197;-66
2022/08/12 01:57:05;;;;;;;0.77;0.77;;;;;;;26.63;41.74;95132.75;5031336;28;20197;-67
2022/08/12 01:59:58;;;;;;;0.77;0.73;;;;;;;26.65;41.81;95109.78;5031437;28;20263;-67
2022/08/12 02:02:26;;;;;;;0.57;0.57;;;;;;;26.54;41.83;95127.56;5017691;28;20230;-68
2022/08/12 02:11:15;;;;;;;0.60;0.60;;;;;;;26.77;41.26;95119.63;5030848;28;20684;-68
2022/08/12 02:14:05;;;;;;;0.47;0.47;;;;;;;26.77;41.12;95128.50;5030662;28;20687;-67
2022/08/12 02:16:40;;;;;;;1.03;1.03;;;;;;;26.69;41.31;95121.41;5030908;28;20208;-68
2022/08/12 02:19:36;;;;;;;0.47;0.47;;;;;;;26.76;41.29;95121.56;5030624;28;20193;-68
2022/08/12 02:22:35;;;;;;;0.53;0.53;;;;;;;26.68;41.63;95124.41;5030527;28;20283;-67
2022/08/12 02:25:15;;;;;;;0.83;0.83;;;;;;;26.56;41.67;95125.31;5030635;28;20204;-66
2022/08/12 02:27:46;;;;;;;0.50;0.50;;;;;;;26.55;41.59;95126.44;5029818;28;20205;-67
2022/08/12 02:30:19;;;;;;;1.40;1.30;;;;;;;26.40;41.69;95124.59;5030585;28;20205;-68
2022/08/12 02:32:48;;;;;;;4.00;2.27;;;;;;;26.45;41.78;95127.00;5030272;28;20217;-66
2022/08/12 02:35:18;;;;;;;0.70;0.70;;;;;;;26.58;40.97;95125.75;5019647;28;20789;-68
2022/08/12 02:37:47;;;;;;;2.90;1.77;;;;;;;26.42;41.23;95116.91;5027686;28;20259;-68
2022/08/12 02:40:16;;;;;;;0.87;0.87;;;;;;;26.63;40.84;95120.09;5030273;28;20733;-66
2022/08/12 02:43:11;;;;;;;0.57;0.57;;;;;;;26.53;41.43;95123.31;5030220;28;20221;-67
2022/08/12 02:45:55;;;;;;;0.93;0.93;;;;;;;26.67;40.54;95126.34;5027510;28;20205;-66
2022/08/12 02:48:29;;;;;;;1.03;0.90;;;;;;;26.65;40.28;95120.53;5030139;28;20197;-66
2022/08/12 02:51:05;;;;;;;1.50;1.40;;;;;;;26.59;40.84;95121.91;5030281;28;20715;-66
2022/08/12 02:53:34;;;;;;;0.40;0.40;;;;;;;26.54;40.93;95114.13;5022537;28;20320;-66
2022/08/12 02:56:04;;;;;;;0.60;0.60;;;;;;;26.44;40.82;95128.09;5030069;28;20255;-69
2022/08/12 02:58:32;;;;;;;0.70;0.70;;;;;;;26.36;40.70;95128.31;5030036;28;20193;-69
2022/08/12 03:01:08;;;;;;;1.87;0.57;;;;;;;26.42;41.03;95122.28;5029912;28;20627;-66
2022/08/12 03:03:38;;;;;;;0.60;0.60;;;;;;;26.42;39.81;95124.22;5029814;28;20193;-68
2022/08/12 03:06:26;;;;;;;0.30;0.30;;;;;;;26.38;40.30;95121.47;5020873;28;20351;-68
2022/08/12 03:08:56;;;;;;;0.87;0.80;;;;;;;26.47;40.10;95127.41;5027561;28;20193;-67
2022/08/12 03:11:47;;;;;;;0.67;0.60;;;;;;;26.49;40.15;95121.69;5029833;28;20197;-65
2022/08/12 03:14:16;;;;;;;0.73;0.73;;;;;;;26.58;40.19;95125.75;5010088;28;20735;-67
2022/08/12 03:16:49;;;;;;;0.57;0.57;;;;;;;26.46;40.14;95128.53;5022348;28;20203;-66
2022/08/12 03:19:23;;;;;;;0.60;0.57;;;;;;;26.48;40.23;95128.97;5029623;28;21033;-65
2022/08/12 03:21:54;;;;;;;0.60;0.60;;;;;;;26.41;40.45;95122.66;5029676;28;20263;-67
2022/08/12 03:24:40;;;;;;;0.70;0.70;;;;;;;26.48;39.98;95131.66;5017086;28;20201;-66
2022/08/12 03:27:10;;;;;;;4.83;0.90;;;;;;;26.37;40.05;95130.63;5029368;28;20204;-68
2022/08/12 03:29:37;;;;;;;1.47;1.00;;;;;;;26.27;40.41;95131.19;5029457;28;20220;-66
2022/08/12 03:32:18;;;;;;;0.60;0.60;;;;;;;26.17;40.61;95125.56;5029481;28;20804;-68
2022/08/12 03:35:06;;;;;;;0.77;0.77;;;;;;;26.07;40.98;95136.81;5029668;28;20204;-68
2022/08/12 03:37:36;;;;;;;0.50;0.50;;;;;;;26.15;40.96;95142.00;5029508;28;20197;-68
2022/08/12 03:40:03;;;;;;;1.93;1.37;;;;;;;26.17;41.38;95142.44;5029713;28;20702;-67
2022/08/12 03:42:50;;;;;;;0.30;0.30;;;;;;;26.32;41.53;95133.59;5028637;28;20663;-68
2022/08/12 04:02:15;;;;;;;1.80;1.37;;;;;;;25.85;42.63;95157.75;5025744;28;20212;-68
2022/08/12 04:04:44;;;;;;;0.50;0.50;;;;;;;25.61;43.24;95149.03;5029287;28;20688;-66
2022/08/12 04:07:15;;;;;;;0.73;0.73;;;;;;;25.45;43.58;95154.38;5032435;28;20781;-68
2022/08/12 04:09:44;;;;;;;0.80;0.80;;;;;;;25.23;44.64;95152.22;5017649;28;20622;-65
2022/08/12 04:15:00;;;;;;;1.17;1.07;;;;;;;25.56;44.36;95160.03;5016251;28;20603;-67
2022/08/12 04:17:27;;;;;;;0.47;0.47;;;;;;;25.45;44.98;95153.59;5023938;28;20263;-68
2022/08/12 04:19:58;;;;;;;0.77;0.77;;;;;;;25.63;45.01;95160.22;5028505;28;20735;-67
2022/08/12 04:22:29;;;;;;;0.70;0.70;;;;;;;25.64;45.26;95145.66;5029949;28;20201;-67
2022/08/12 04:25:00;;;;;;;0.80;0.67;;;;;;;25.56;45.86;95144.72;5031878;28;20209;-67
2022/08/12 04:27:30;;;;;;;0.30;0.30;;;;;;;25.57;46.89;95153.53;5032234;28;20241;-68
2022/08/12 04:29:58;;;;;;;0.73;0.73;;;;;;;25.45;47.19;95156.28;5032237;28;20211;-69
2022/08/12 04:32:48;;;;;;;0.70;0.70;;;;;;;25.27;47.12;95150.41;5032149;28;20216;-68
2022/08/12 04:35:16;;;;;;;6.03;1.37;;;;;;;25.13;47.34;95162.66;5031514;28;20907;-68
2022/08/12 04:37:46;;;;;;;0.53;0.53;;;;;;;25.12;47.98;95166.44;5031707;28;20185;-70
2022/08/12 04:40:29;;;;;;;0.30;0.30;;;;;;;24.95;48.61;95162.91;5027537;28;20209;-69
2022/08/12 04:42:59;;;;;;;0.57;0.53;;;;;;;25.27;48.53;95141.59;5022824;28;20197;-68
2022/08/12 04:45:27;;;;;;;2.10;1.63;;;;;;;25.40;48.88;95156.53;5033475;28;20201;-67
2022/08/12 04:47:55;;;;;;;6.03;4.93;;;;;;;25.24;48.65;95158.34;5024139;28;20279;-65
2022/08/12 04:50:23;;;;;;;3.27;3.03;;;;;;;25.17;48.83;95153.56;5028570;28;20208;-66
2022/08/12 04:53:01;;;;;;;0.67;0.67;;;;;;;25.46;48.05;95141.72;5032552;28;20259;-68
2022/08/12 04:55:28;;;;;;;0.63;0.63;;;;;;;25.30;48.53;95147.03;5023789;28;20224;-67
2022/08/12 04:57:55;;;;;;;2.07;1.13;;;;;;;25.29;49.43;95147.38;5020557;28;20638;-68
2022/08/12 05:00:22;;;;;;;1.07;0.60;;;;;;;25.36;49.67;95150.25;5030111;28;20265;-68
2022/08/12 05:02:49;;;;;;;0.80;0.80;;;;;;;25.35;49.68;95154.03;5032294;28;20215;-67
2022/08/12 05:05:21;;;;;;;1.43;1.33;;;;;;;25.40;48.64;95145.81;5032433;28;20224;-67
2022/08/12 05:07:50;;;;;;;5.60;4.27;;;;;;;25.67;48.22;95145.78;5031967;28;20205;-68
2022/08/12 05:10:22;;;;;;;8.50;7.43;;;;;;;25.67;48.85;95153.03;5030926;28;20220;-67
2022/08/12 05:13:07;;;;;;;1.23;1.13;;;;;;;25.74;48.60;95150.53;5022585;28;20257;-70
2022/08/12 05:15:46;;;;;;;0.37;0.30;;;;;;;25.67;48.82;95145.00;5029193;28;20197;-71
2022/08/12 05:18:34;;;;;;;3.30;3.00;;;;;;;25.95;48.31;95156.44;5018756;28;20202;-67
2022/08/12 05:21:06;;;;;;;3.60;3.20;;;;;;;25.89;48.70;95157.84;5012566;28;20620;-71
2022/08/12 05:23:36;;;;;;;0.97;0.97;;;;;;;25.83;48.88;95153.84;5026165;28;20220;-69
2022/08/12 05:26:03;;;;;;;0.33;0.33;;;;;;;25.83;48.23;95148.47;5018680;28;20216;-69
2022/08/12 05:28:30;;;;;;;0.50;0.50;;;;;;;25.83;48.55;95154.63;5018645;28;20200;-69
2022/08/12 05:31:02;;;;;;;0.63;0.63;;;;;;;25.89;48.40;95163.22;5020603;28;20851;-68
2022/08/12 05:33:36;;;;;;;0.87;0.60;;;;;;;25.90;48.57;95164.75;5035623;28;20773;-68
2022/08/12 05:36:11;;;;;;;1.67;0.97;;;;;;;25.67;49.04;95163.78;5031424;28;20219;-71
2022/08/12 05:38:57;;;;;;;0.90;0.90;;;;;;;25.78;49.09;95162.16;5026394;28;20688;-70
2022/08/12 05:41:34;;;;;;;0.43;0.40;;;;;;;25.91;48.31;95166.34;5035828;28;20197;-68
2022/08/12 05:44:05;;;;;;;0.70;0.60;;;;;;;25.83;48.26;95165.38;5030884;28;20262;-71
2022/08/12 05:46:35;;;;;;;0.50;0.50;;;;;;;25.88;47.46;95167.00;5031714;28;20634;-75
2022/08/12 05:49:03;;;;;;;0.83;0.83;;;;;;;26.05;47.46;95161.34;5031837;28;20208;-70
2022/08/12 05:51:33;;;;;;;1.80;1.13;;;;;;;26.06;47.45;95162.88;5030480;28;20197;-75
2022/08/12 05:54:09;;;;;;;2.00;1.37;;;;;;;26.22;47.56;95181.69;5025750;28;20213;-71
2022/08/12 05:56:36;;;;;;;0.40;0.40;;;;;;;25.81;47.53;95164.13;5026458;28;20220;-71
2022/08/12 05:59:09;;;;;;;0.23;0.23;;;;;;;25.97;47.39;95170.31;5031119;28;20245;-71
2022/08/12 06:01:38;;;;;;;0.30;0.30;;;;;;;26.09;48.12;95164.91;5031280;28;20197;-71
2022/08/12 06:04:24;;;;;;;0.70;0.70;;;;;;;25.98;48.54;95161.13;5030790;28;20678;-70
2022/08/12 06:06:52;;;;;;;0.37;0.37;;;;;;;26.12;48.06;95163.41;5027701;28;20299;-70
2022/08/12 06:09:21;;;;;;;1.57;0.87;;;;;;;26.20;47.72;95163.25;5018189;28;20676;-71
2022/08/12 06:11:50;;;;;;;0.40;0.40;;;;;;;26.35;47.64;95154.38;5031034;28;20197;-71
2022/08/12 06:14:35;;;;;;;0.40;0.40;;;;;;;26.24;48.30;95172.16;5011025;28;20217;-70
2022/08/12 06:17:04;;;;;;;0.63;0.53;;;;;;;26.18;48.82;95162.81;5025904;28;20600;-72
2022/08/12 06:19:31;;;;;;;0.50;0.50;;;;;;;26.12;48.75;95166.88;5030907;28;20201;-68
2022/08/12 06:22:18;;;;;;;1.03;0.93;;;;;;;26.37;48.12;95170.94;5031200;28;20289;-74
2022/08/12 06:24:47;;;;;;;0.50;0.50;;;;;;;26.32;47.84;95152.41;5030776;28;20582;-68
2022/08/12 06:27:16;;;;;;;0.37;0.33;;;;;;;26.51;48.39;95163.22;5030476;28;20205;-68
2022/08/12 06:29:43;;;;;;;0.57;0.57;;;;;;;26.55;47.96;95164.06;5030763;28;20196;-69
2022/08/12 06:32:30;;;;;;;0.87;0.83;;;;;;;26.57;47.76;95156.44;5030445;28;20205;-69
2022/08/12 06:34:57;;;;;;;0.73;0.73;;;;;;;26.03;49.07;95160.88;5022053;28;20229;-71
2022/08/12 06:37:54;;;;;;;0.50;0.50;;;;;;;26.08;48.39;95166.00;5028035;28;20264;-69
2022/08/12 06:43:30;;;;;;;0.70;0.63;;;;;;;26.83;47.05;95162.06;4988718;28;20206;-68
2022/08/12 06:46:18;;;;;;;0.60;0.60;;;;;;;26.35;46.77;95170.50;4988457;28;20218;-69
2022/08/12 06:48:45;;;;;;;0.57;0.57;;;;;;;26.42;46.74;95161.84;5004949;28;20711;-69
2022/08/12 06:51:12;;;;;;;0.70;0.70;;;;;;;26.06;46.23;95170.94;5026687;28;20223;-70
2022/08/12 06:53:45;;;;;;;1.40;1.30;;;;;;;26.00;47.15;95164.25;5030375;28;20294;-72
2022/08/12 06:56:16;;;;;;;0.67;0.67;;;;;;;26.24;46.65;95166.03;5022492;28;20251;-69
2022/08/12 06:58:43;;;;;;;0.37;0.37;;;;;;;26.12;46.80;95166.88;5029759;28;20607;-69
2022/08/12 07:01:10;;;;;;;0.43;0.43;;;;;;;26.28;47.42;95159.59;5030210;28;20279;-70
2022/08/12 07:03:37;;;;;;;1.90;1.80;;;;;;;26.19;46.81;95166.25;5029888;28;20201;-68
2022/08/12 07:06:10;;;;;;;0.60;0.60;;;;;;;26.36;46.59;95144.41;5030061;28;20299;-70
2022/08/12 07:08:38;;;;;;;0.67;0.60;;;;;;;26.74;45.72;95153.41;5028067;28;20675;-69
2022/08/12 07:11:08;;;;;;;0.20;0.20;;;;;;;26.40;45.37;95154.13;5018773;28;20247;-69
2022/08/12 07:13:41;;;;;;;0.43;0.43;;;;;;;26.96;44.79;95163.50;5029357;28;20264;-68
2022/08/12 07:16:50;;;;;;;0.77;0.77;;;;;;;26.74;45.68;95150.72;5020628;28;20660;-70
2022/08/12 07:19:16;;;;;;;0.90;0.90;;;;;;;26.87;45.39;95168.28;5029754;28;20652;-69
2022/08/12 07:21:44;;;;;;;2.97;0.87;;;;;;;26.73;45.25;95167.97;5018394;28;20201;-69
2022/08/12 07:24:29;;;;;;;1.60;1.50;;;;;;;26.96;43.94;95158.09;5016743;28;20204;-68
2022/08/12 07:26:55;;;;;;;6.83;1.13;;;;;;;27.29;43.92;95165.69;5030215;28;20623;-68
2022/08/12 07:29:24;;;;;;;1.27;0.83;;;;;;;26.98;44.25;95158.53;5025057;28;20304;-68
2022/08/12 07:32:11;;;;;;;0.70;0.70;;;;;;;26.92;45.28;95156.47;5010608;28;20463;-69
2022/08/12 07:34:42;;;;;;;1.27;1.20;;;;;;;26.88;44.99;95145.63;5009937;28;20209;-69
2022/08/12 07:37:09;;;;;;;1.13;1.10;;;;;;;27.19;44.63;95162.81;5022630;28;20251;-68
2022/08/12 07:39:35;;;;;;;0.70;0.70;;;;;;;27.54;43.49;95156.22;5029617;28;20201;-68
2022/08/12 07:42:16;;;;;;;1.60;1.13;;;;;;;27.36;43.54;95154.31;5033255;28;20208;-68
2022/08/12 07:44:43;;;;;;;1.27;1.17;;;;;;;27.15;44.69;95148.50;5033390;28;20193;-69
2022/08/12 07:47:09;;;;;;;0.83;0.80;;;;;;;27.17;43.32;95151.63;5034003;28;20209;-69
2022/08/12 07:49:38;;;;;;;0.70;0.70;;;;;;;26.68;43.73;95140.53;5033673;28;20279;-68
2022/08/12 07:52:25;;;;;;;1.63;1.53;;;;;;;26.90;45.52;95143.38;5033883;28;20214;-69
2022/08/12 07:54:52;;;;;;;0.60;0.60;;;;;;;27.14;43.04;95130.78;5033742;28;20225;-71
2022/08/12 07:57:20;;;;;;;1.07;0.93;;;;;;;27.29;42.77;95132.63;5033368;28;20204;-70
2022/08/12 07:59:47;;;;;;;0.70;0.70;;;;;;;27.58;43.00;95146.31;5033313;28;20212;-70
2022/08/12 08:02:20;;;;;;;1.23;1.13;;;;;;;27.75;42.12;95137.00;5033562;28;20277;-70
2022/08/12 08:04:56;;;;;;;0.53;0.53;;;;;;;27.91;42.36;95143.03;5033169;28;20734;-68
2022/08/12 08:07:28;;;;;;;0.47;0.47;;;;;;;28.04;41.41;95136.38;5032944;28;20225;-68
2022/08/12 08:09:58;;;;;;;0.73;0.73;;;;;;;28.01;41.70;95139.75;5033371;28;20271;-67
2022/08/12 08:15:14;;;;;;;1.13;1.03;;;;;;;28.22;39.61;95137.44;5032602;28;20726;-69
2022/08/12 08:17:58;;;;;;;0.60;0.60;;;;;;;28.67;39.16;95131.97;5033173;28;20193;-69
2022/08/12 08:20:29;;;;;;;1.33;1.23;;;;;;;28.88;39.42;95132.28;5032559;28;20209;-68
2022/08/12 08:22:57;;;;;;;1.20;0.93;;;;;;;29.05;38.09;95114.75;5033473;28;20197;-69
2022/08/12 08:25:30;;;;;;;0.97;0.80;;;;;;;29.21;37.66;95117.31;5033132;28;20201;-67
2022/08/12 08:28:07;;;;;;;0.60;0.60;;;;;;;29.43;37.41;95119.09;5032884;28;20188;-70
2022/08/12 08:30:37;;;;;;;0.67;0.60;;;;;;;29.49;37.61;95112.22;5032397;28;20200;-68
2022/08/12 08:33:08;;;;;;;2.07;1.77;;;;;;;29.32;37.45;95110.88;5033360;28;20201;-67
2022/08/12 08:35:54;;;;;;;0.20;0.20;;;;;;;29.40;37.01;95092.81;5032518;28;20233;-67
2022/08/12 08:38:23;;;;;;;0.47;0.47;;;;;;;29.63;37.77;95117.78;5033069;28;20216;-69
2022/08/12 08:44:06;;;;;;;1.20;0.97;;;;;;;30.27;35.03;95097.53;5017770;28;20229;-68
2022/08/12 08:46:36;;;;;;;0.20;0.20;;;;;;;29.81;35.07;95102.53;5018969;28;20189;-69
2022/08/12 08:49:04;;;;;;;0.50;0.50;;;;;;;30.02;36.55;95086.50;5033072;28;20201;-70
2022/08/12 08:51:32;;;;;;;0.20;0.20;;;;;;;30.47;35.56;95066.41;5032466;28;20235;-68
2022/08/12 08:53:59;;;;;;;0.50;0.50;;;;;;;30.55;35.47;95087.69;5032632;28;20315;-69
2022/08/12 08:56:28;;;;;;;0.40;0.40;;;;;;;30.57;34.68;95090.00;5032729;28;20197;-68
2022/08/12 08:58:56;;;;;;;1.53;1.17;;;;;;;30.54;33.11;95086.16;5032769;28;20271;-67
2022/08/12 09:01:24;;;;;;;1.43;1.10;;;;;;;30.51;33.49;95091.53;5032358;28;20620;-68
2022/08/12 09:03:51;;;;;;;0.50;0.50;;;;;;;30.92;33.82;95081.34;5013617;28;20636;-70
2022/08/12 09:06:42;;;;;;;0.87;0.87;;;;;;;29.81;32.20;95092.50;5025239;28;20236;-68
2022/08/12 09:09:20;;;;;;;0.53;0.53;;;;;;;30.30;32.72;95081.34;5019742;28;20251;-68
2022/08/12 09:14:42;;;;;;;0.57;0.57;;;;;;;30.71;33.84;95080.03;5021002;28;20224;-71
2022/08/12 09:17:21;;;;;;;0.73;0.60;;;;;;;30.58;32.36;95086.94;5032158;28;20652;-70
2022/08/12 09:19:49;;;;;;;0.63;0.63;;;;;;;30.55;32.08;95074.16;5032110;28;20204;-69
2022/08/12 09:22:24;;;;;;;2.20;1.20;;;;;;;30.24;32.86;95080.09;5031790;28;20201;-70
2022/08/12 09:24:55;;;;;;;0.77;0.40;;;;;;;30.37;32.61;95072.50;5032218;28;20201;-69
2022/08/12 09:27:25;;;;;;;0.40;0.40;;;;;;;30.30;32.56;95075.16;5019710;28;20209;-67
2022/08/12 09:30:14;;;;;;;0.53;0.50;;;;;;;30.58;32.40;95084.22;5019274;28;20210;-69
2022/08/12 09:32:49;;;;;;;0.40;0.40;;;;;;;31.02;31.50;95077.91;5029723;28;20192;-69
2022/08/12 09:35:40;;;;;;;0.20;0.20;;;;;;;31.20;30.44;95079.53;5031938;28;20219;-68
2022/08/12 09:38:16;;;;;;;0.50;0.50;;;;;;;30.88;31.91;95067.03;5018903;28;20235;-70
2022/08/12 09:40:56;;;;;;;0.50;0.50;;;;;;;30.98;31.92;95066.28;5031489;28;20201;-70
2022/08/12 09:46:31;;;;;;;0.80;0.57;;;;;;;31.25;30.55;95067.53;5017432;28;20193;-70
2022/08/12 09:49:00;;;;;;;0.53;0.53;;;;;;;31.17;30.68;95068.69;5019596;28;20291;-68
2022/08/12 09:51:40;;;;;;;0.30;0.30;;;;;;;30.94;30.31;95060.09;5031724;28;20710;-69
2022/08/12 09:54:13;;;;;;;0.37;0.37;;;;;;;31.41;30.54;95060.66;5031755;28;20231;-70
2022/08/12 09:57:06;;;;;;;0.60;0.60;;;;;;;31.28;29.83;95055.94;5031251;28;20192;-68
2022/08/12 09:59:55;;;;;;;0.50;0.50;;;;;;;31.47;29.85;95047.53;5031635;28;20200;-68
2022/08/12 10:03:18;;;;;;;0.37;0.37;;;;;;;31.20;30.98;95051.69;5011094;28;20289;-68
2022/08/12 10:06:00;;;;;;;0.40;0.40;;;;;;;30.88;30.34;95057.75;4957960;28;20253;-69
2022/08/12 10:08:47;;;;;;;0.40;0.40;;;;;;;31.17;29.91;95041.63;5028254;28;20185;-69
2022/08/12 10:14:23;;;;;;;0.50;0.50;;;;;;;31.54;31.04;95047.53;5018369;28;20775;-66
2022/08/12 10:17:00;;;;;;;0.77;0.77;;;;;;;31.15;29.85;95041.97;5016598;28;20250;-68
2022/08/12 10:19:27;;;;;;;3.63;0.97;;;;;;;31.23;30.86;95034.66;5031092;28;20573;-67
2022/08/12 10:22:04;;;;;;;0.30;0.30;;;;;;;31.67;30.65;95032.44;5030676;28;20199;-68
2022/08/12 10:29:35;;;;;;;0.37;0.37;;;;;;;31.54;30.63;95025.84;5031139;28;20251;-67
2022/08/12 10:30:38;;;;;;;0.97;0.70;;;;;;;31.54;29.86;95023.16;5031200;28;20208;-67
2022/08/12 10:33:25;;;;;;;1.33;0.87;;;;;;;32.13;28.93;95006.16;5032566;28;20691;-70
2022/08/12 10:35:59;;;;;;;0.33;0.33;;;;;;;31.09;29.72;95015.69;5017690;28;20746;-69
2022/08/12 10:38:26;;;;;;;0.47;0.47;;;;;;;32.04;28.80;95013.13;5030581;28;20197;-67
2022/08/12 10:44:12;;;;;;;0.47;0.47;;;;;;;32.39;29.70;95013.06;5030353;28;20184;-70
2022/08/12 10:46:46;;;;;;;0.37;0.37;;;;;;;31.51;29.36;95010.38;5030146;28;20201;-68
2022/08/12 10:49:19;;;;;;;0.20;0.20;;;;;;;32.12;29.24;95012.72;5030110;28;20193;-69
2022/08/12 10:52:08;;;;;;;0.80;0.67;;;;;;;31.19;29.29;95014.91;5030530;28;20201;-68
2022/08/12 10:54:58;;;;;;;1.10;1.00;;;;;;;31.58;29.51;95013.09;5030348;28;20226;-69
2022/08/12 10:57:26;;;;;;;0.73;0.73;;;;;;;31.03;29.53;95009.88;5030119;28;20205;-67
2022/08/12 11:00:14;;;;;;;0.40;0.40;;;;;;;31.57;29.19;95001.47;5030384;28;20292;-68
2022/08/12 11:03:01;;;;;;;0.50;0.50;;;;;;;31.69;30.13;94992.19;5030224;28;20208;-69
2022/08/12 11:05:49;;;;;;;0.40;0.40;;;;;;;31.46;29.18;94999.94;5023276;28;20713;-69
2022/08/12 11:08:38;;;;;;;0.40;0.40;;;;;;;31.71;29.87;94998.00;5025851;28;20229;-68
2022/08/12 11:11:16;;;;;;;0.77;0.77;;;;;;;31.67;30.33;95000.72;5030254;28;20188;-70
2022/08/12 11:14:04;;;;;;;1.90;0.70;;;;;;;31.41;29.72;94981.34;5011299;28;20197;-67
2022/08/12 11:16:32;;;;;;;2.97;1.17;;;;;;;31.61;29.39;94993.34;5021047;28;20621;-67
2022/08/12 11:19:01;;;;;;;0.67;0.43;;;;;;;30.98;29.74;94995.94;5027677;28;20688;-67
2022/08/12 11:21:31;;;;;;;0.73;0.73;;;;;;;31.06;29.99;95000.97;5026248;28;20940;-69
2022/08/12 11:24:18;;;;;;;0.63;0.63;;;;;;;31.25;30.08;94989.81;5013819;28;20197;-69
2022/08/12 11:27:00;;;;;;;0.30;0.30;;;;;;;30.92;29.93;94989.31;5018315;28;20197;-69
2022/08/12 11:29:35;;;;;;;0.60;0.60;;;;;;;31.40;30.01;94986.00;5028027;28;20197;-67
2022/08/12 11:32:22;;;;;;;6.53;0.90;;;;;;;31.50;30.32;94982.50;5028214;28;20203;-68
2022/08/12 11:34:50;;;;;;;0.40;0.40;;;;;;;30.71;30.74;94976.50;5026499;28;20228;-69
2022/08/12 11:37:21;;;;;;;0.57;0.57;;;;;;;31.05;30.48;94969.66;5027726;28;20205;-70
2022/08/12 11:40:08;;;;;;;0.40;0.40;;;;;;;31.07;30.46;94983.59;5023677;28;20280;-69
2022/08/12 11:42:37;;;;;;;0.27;0.27;;;;;;;31.04;30.46;94987.03;5025669;28;20225;-68
2022/08/12 11:45:13;;;;;;;0.57;0.57;;;;;;;30.83;30.60;94968.81;5027701;28;20718;-70
2022/08/12 11:47:43;;;;;;;0.63;0.63;;;;;;;30.51;31.23;94981.41;5028682;28;20213;-68
2022/08/12 11:50:10;;;;;;;0.90;0.80;;;;;;;31.00;31.07;94982.78;5028901;28;20201;-68
2022/08/12 11:52:46;;;;;;;0.20;0.20;;;;;;;31.37;30.11;94975.16;5028645;28;20200;-68
2022/08/12 11:55:25;;;;;;;0.60;0.60;;;;;;;31.28;30.29;94977.41;5028542;28;20216;-69
2022/08/12 11:57:56;;;;;;;1.37;1.10;;;;;;;31.11;30.16;94967.34;5028583;28;20204;-68
2022/08/12 12:00:43;;;;;;;1.80;0.67;;;;;;;30.83;31.35;94973.47;5015409;28;20201;-70
2022/08/12 12:03:30;;;;;;;0.67;0.67;;;;;;;31.07;31.43;94971.97;5028221;28;20630;-70
2022/08/12 12:06:16;;;;;;;0.80;0.80;;;;;;;30.30;33.62;94978.63;5028257;28;20237;-69
2022/08/12 12:08:44;;;;;;;0.73;0.73;;;;;;;29.73;35.90;94979.34;5028694;28;20213;-69
2022/08/12 12:11:18;;;;;;;3.97;2.20;;;;;;;29.25;36.68;94969.66;5028252;28;20316;-68
2022/08/12 12:13:46;;;;;;;0.60;0.60;;;;;;;29.56;37.18;94982.69;5027991;28;20205;-67
2022/08/12 12:16:33;;;;;;;0.30;0.30;;;;;;;29.31;36.85;94976.25;5028493;28;20672;-68
2022/08/12 12:19:07;;;;;;;0.57;0.57;;;;;;;29.35;36.62;94971.69;5027393;28;20745;-66
2022/08/12 12:21:37;;;;;;;0.30;0.30;;;;;;;29.61;37.68;94966.13;5027612;28;20201;-67
2022/08/12 12:24:18;;;;;;;0.90;0.90;;;;;;;29.91;37.07;94967.53;5027848;28;20691;-66
2022/08/12 12:26:52;;;;;;;0.63;0.63;;;;;;;30.22;36.78;94963.47;5017144;28;20288;-66
2022/08/12 12:29:28;;;;;;;0.90;0.83;;;;;;;30.75;36.33;94966.44;5031192;28;20231;-66
2022/08/12 12:32:15;;;;;;;0.67;0.67;;;;;;;30.77;35.00;94959.50;5032232;28;20197;-65
2022/08/12 12:34:44;;;;;;;3.57;0.70;;;;;;;31.28;32.72;94966.59;5030232;28;20311;-66
2022/08/12 12:37:31;;;;;;;1.30;0.70;;;;;;;31.45;34.04;94965.88;5031098;28;20647;-66
2022/08/12 12:40:18;;;;;;;0.40;0.40;;;;;;;32.11;32.19;94948.81;5031905;28;20216;-69
2022/08/12 12:42:45;;;;;;;0.40;0.40;;;;;;;32.23;31.63;94956.53;5030341;28;20827;-66
2022/08/12 12:45:26;;;;;;;1.53;0.80;;;;;;;31.13;33.06;94960.38;5021156;28;20197;-69
2022/08/12 12:48:17;;;;;;;0.33;0.33;;;;;;;31.41;31.35;94946.13;5029710;28;20208;-67
2022/08/12 12:51:14;;;;;;;0.60;0.60;;;;;;;31.80;31.03;94930.66;5022345;28;20231;-68
2022/08/12 12:53:41;;;;;;;0.57;0.57;;;;;;;32.03;31.69;94941.84;5024996;28;20751;-66
2022/08/12 12:56:29;;;;;;;0.70;0.70;;;;;;;32.04;32.13;94938.00;5026177;28;20225;-69
2022/08/12 12:59:02;;;;;;;1.07;0.97;;;;;;;32.14;32.70;94931.75;5018720;28;20197;-67
2022/08/12 13:01:32;;;;;;;0.97;0.77;;;;;;;31.88;31.96;94934.13;5032645;28;20193;-65
2022/08/12 13:04:07;;;;;;;1.00;0.67;;;;;;;32.60;31.87;94927.00;5012218;28;20205;-67
2022/08/12 13:06:40;;;;;;;0.50;0.50;;;;;;;33.06;30.31;94915.91;5011887;28;20242;-67
2022/08/12 13:09:08;;;;;;;1.43;0.90;;;;;;;32.36;30.05;94938.69;5030839;28;20615;-65
2022/08/12 13:11:39;;;;;;;0.40;0.40;;;;;;;32.49;29.53;94931.69;5019150;28;20197;-66
2022/08/12 13:14:14;;;;;;;0.67;0.67;;;;;;;33.22;29.88;94918.91;5030404;28;20193;-67
2022/08/12 13:17:02;;;;;;;0.20;0.20;;;;;;;33.27;29.38;94914.97;5031308;28;20200;-66
2022/08/12 13:19:35;;;;;;;0.77;0.50;;;;;;;33.51;30.15;94919.47;5032153;28;20704;-65
2022/08/12 13:22:19;;;;;;;0.63;0.63;;;;;;;34.04;29.50;94922.50;5029210;28;20311;-65
2022/08/12 13:24:51;;;;;;;0.33;0.33;;;;;;;34.13;29.18;94920.09;5030018;28;20770;-66
2022/08/12 13:27:30;;;;;;;0.60;0.60;;;;;;;34.57;28.20;94920.00;5028657;28;20250;-68
2022/08/12 13:30:08;;;;;;;0.50;0.33;;;;;;;33.46;29.23;94930.78;5029640;28;20205;-65
2022/08/12 13:32:45;;;;;;;0.33;0.33;;;;;;;33.74;28.69;94939.47;5030787;28;20205;-67
2022/08/12 13:35:28;;;;;;;0.30;0.30;;;;;;;32.68;29.04;94933.91;5030235;28;20685;-67
2022/08/12 13:38:15;;;;;;;1.13;1.03;;;;;;;33.54;29.28;94940.44;5010078;28;20210;-66
2022/08/12 13:41:02;;;;;;;0.50;0.50;;;;;;;33.82;28.95;94929.31;5027361;28;20197;-68
2022/08/12 13:43:29;;;;;;;3.40;1.47;;;;;;;33.10;29.22;94929.47;5030312;28;20213;-68
2022/08/12 13:46:08;;;;;;;2.13;1.17;;;;;;;32.71;29.96;94916.06;5030281;28;20280;-68
2022/08/12 13:48:39;;;;;;;1.40;0.80;;;;;;;32.70;29.24;94942.44;5029286;28;20207;-68
2022/08/12 13:51:12;;;;;;;0.33;0.33;;;;;;;33.13;29.62;94939.53;5029497;28;20197;-67
2022/08/12 13:53:39;;;;;;;0.80;0.80;;;;;;;33.46;29.21;94933.50;5030421;28;20296;-68
2022/08/12 13:56:25;;;;;;;0.70;0.70;;;;;;;32.74;28.59;94931.56;5022913;28;20220;-68